Time;durP1;ratioP1;P1;durP2;ratioP2;P2;SDS_P1;SDS_P2;PMS_P1;PMS_P2;Temp;Humidity;BMP_temperature;BMP_pressure;BME280_temperature;BME280_humidity;BME280_pressure;Samples;Min_cycle;Max_cycle;Signal;HPM_P1;HPM_P2
2023/10/31 00:00:05;;;;;;;;;;;15.40;99.90;;;;;;5041101;28;20469;-74
2023/10/31 00:02:31;;;;;;;;;;;15.40;99.90;;;;;;5048497;28;20000;-75
2023/10/31 00:04:57;;;;;;;;;;;15.40;99.90;;;;;;5047549;28;19956;-74
2023/10/31 00:07:22;;;;;;;;;;;15.40;99.90;;;;;;5039509;28;19999;-74
2023/10/31 00:09:49;;;;;;;;;;;15.40;99.90;;;;;;5040258;28;19917;-74
2023/10/31 00:12:16;;;;;;;;;;;15.40;99.90;;;;;;5043278;28;19958;-74
2023/10/31 00:14:42;;;;;;;;;;;15.40;99.90;;;;;;5040302;28;20350;-74
2023/10/31 00:17:08;;;;;;;;;;;15.60;99.90;;;;;;5036035;28;19921;-74
2023/10/31 00:19:33;;;;;;;;;;;15.70;99.90;;;;;;5040999;28;20035;-73
2023/10/31 00:21:59;;;;;;;;;;;15.70;99.90;;;;;;5041281;28;20380;-73
2023/10/31 00:24:24;;;;;;;;;;;15.70;99.90;;;;;;5039290;28;19913;-73
2023/10/31 00:26:51;;;;;;;;;;;15.80;99.90;;;;;;5036474;28;19913;-74
2023/10/31 00:29:17;;;;;;;;;;;15.90;99.90;;;;;;5042455;28;20395;-73
2023/10/31 00:31:42;;;;;;;;;;;15.90;99.90;;;;;;5041027;28;19913;-73
2023/10/31 00:34:08;;;;;;;;;;;15.90;99.90;;;;;;5036938;28;20118;-74
2023/10/31 00:36:34;;;;;;;;;;;15.90;99.90;;;;;;5038542;28;19961;-71
2023/10/31 00:38:59;;;;;;;;;;;16.00;99.90;;;;;;5035746;28;19913;-73
2023/10/31 00:41:25;;;;;;;;;;;15.90;99.90;;;;;;5039033;28;19913;-73
2023/10/31 00:43:50;;;;;;;;;;;15.90;99.90;;;;;;5039200;28;20221;-72
2023/10/31 00:46:16;;;;;;;;;;;15.90;99.90;;;;;;5036985;28;20244;-73
2023/10/31 00:48:41;;;;;;;;;;;15.90;99.90;;;;;;5037950;28;20482;-72
2023/10/31 00:51:07;;;;;;;;;;;15.90;99.90;;;;;;5034319;28;20258;-73
2023/10/31 00:53:32;;;;;;;;;;;15.90;99.90;;;;;;5040286;28;20058;-73
2023/10/31 00:55:59;;;;;;;;;;;16.00;99.90;;;;;;5038057;28;19908;-73
2023/10/31 00:58:24;;;;;;;;;;;16.00;99.90;;;;;;5035413;28;19978;-72
2023/10/31 01:00:50;;;;;;;;;;;16.00;99.90;;;;;;5039108;28;19912;-73
2023/10/31 01:03:16;;;;;;;;;;;15.90;99.90;;;;;;5036611;28;20180;-74
2023/10/31 01:05:41;;;;;;;;;;;16.00;99.90;;;;;;5036634;28;19974;-73
2023/10/31 01:08:07;;;;;;;;;;;16.00;99.90;;;;;;5036679;28;20330;-73
2023/10/31 01:10:32;;;;;;;;;;;15.90;99.90;;;;;;5036860;28;20031;-74
2023/10/31 01:12:58;;;;;;;;;;;15.90;99.90;;;;;;5037241;28;20311;-73
2023/10/31 01:15:23;;;;;;;;;;;15.90;99.90;;;;;;5035043;28;19913;-70
2023/10/31 01:17:49;;;;;;;;;;;15.80;99.90;;;;;;5039936;28;19921;-70
2023/10/31 01:20:14;;;;;;;;;;;15.80;99.90;;;;;;5037882;28;20399;-70
2023/10/31 01:22:40;;;;;;;;;;;15.70;99.90;;;;;;5038756;28;20547;-73
2023/10/31 01:25:05;;;;;;;;;;;15.70;99.90;;;;;;5040806;28;19916;-74
2023/10/31 01:27:31;;;;;;;;;;;15.70;99.90;;;;;;5039268;28;20391;-73
2023/10/31 01:29:56;;;;;;;;;;;15.70;99.90;;;;;;5039164;28;19913;-73
2023/10/31 01:32:22;;;;;;;;;;;15.60;99.90;;;;;;5039801;28;20010;-72
2023/10/31 01:34:47;;;;;;;;;;;15.50;99.90;;;;;;5040229;28;20300;-72
2023/10/31 01:37:14;;;;;;;;;;;15.60;99.90;;;;;;5040576;28;20384;-72
2023/10/31 01:39:40;;;;;;;;;;;15.60;99.90;;;;;;5041700;28;19916;-72
2023/10/31 01:42:06;;;;;;;;;;;15.60;99.90;;;;;;5040798;28;20380;-72
2023/10/31 01:44:31;;;;;;;;;;;15.50;99.90;;;;;;5040715;28;19943;-73
2023/10/31 01:46:57;;;;;;;;;;;15.60;99.90;;;;;;5039502;28;19912;-73
2023/10/31 01:49:23;;;;;;;;;;;15.60;99.90;;;;;;5041868;28;19999;-72
2023/10/31 01:51:48;;;;;;;;;;;15.60;99.90;;;;;;5043839;28;19909;-73
2023/10/31 01:54:14;;;;;;;;;;;15.60;99.90;;;;;;5041239;28;19943;-72
2023/10/31 01:56:40;;;;;;;;;;;15.60;99.90;;;;;;5041594;28;20398;-73
2023/10/31 01:59:06;;;;;;;;;;;15.50;99.90;;;;;;5037574;28;19917;-73
2023/10/31 02:01:32;;;;;;;;;;;15.50;99.90;;;;;;5042693;28;20031;-72
2023/10/31 02:03:58;;;;;;;;;;;15.50;99.90;;;;;;5042976;28;20715;-73
2023/10/31 02:06:24;;;;;;;;;;;15.50;99.90;;;;;;5041226;28;19940;-74
2023/10/31 02:08:49;;;;;;;;;;;15.50;99.90;;;;;;5040085;28;19932;-73
2023/10/31 02:11:15;;;;;;;;;;;15.50;99.90;;;;;;5042550;28;19913;-74
2023/10/31 02:13:41;;;;;;;;;;;15.50;99.90;;;;;;5037966;28;19924;-73
2023/10/31 02:16:06;;;;;;;;;;;15.40;99.90;;;;;;5041195;28;20522;-73
2023/10/31 02:18:33;;;;;;;;;;;15.50;99.90;;;;;;5038194;28;19920;-72
2023/10/31 02:20:59;;;;;;;;;;;15.40;99.90;;;;;;5043312;28;19915;-73
2023/10/31 02:23:24;;;;;;;;;;;15.50;99.90;;;;;;5040233;28;19909;-73
2023/10/31 02:25:50;;;;;;;;;;;15.40;99.90;;;;;;5041235;28;19951;-73
2023/10/31 02:28:15;;;;;;;;;;;15.40;99.90;;;;;;5041713;28;20387;-73
2023/10/31 02:30:41;;;;;;;;;;;15.40;99.90;;;;;;5042143;28;20040;-72
2023/10/31 02:33:06;;;;;;;;;;;15.40;99.90;;;;;;5041038;28;20531;-74
2023/10/31 02:35:32;;;;;;;;;;;15.40;99.90;;;;;;5041611;28;19935;-72
2023/10/31 02:37:58;;;;;;;;;;;15.40;99.90;;;;;;5037729;28;19920;-72
2023/10/31 02:40:23;;;;;;;;;;;15.30;99.90;;;;;;5039895;28;19916;-74
2023/10/31 02:42:49;;;;;;;;;;;15.30;99.90;;;;;;5043795;28;19912;-73
2023/10/31 02:45:14;;;;;;;;;;;15.20;99.90;;;;;;5040499;28;19917;-71
2023/10/31 02:47:40;;;;;;;;;;;15.20;99.90;;;;;;5037714;28;19913;-72
2023/10/31 02:50:06;;;;;;;;;;;15.20;99.90;;;;;;5040829;28;20552;-72
2023/10/31 02:52:32;;;;;;;;;;;15.20;99.90;;;;;;5042078;28;19962;-72
2023/10/31 02:54:58;;;;;;;;;;;15.20;99.90;;;;;;5038299;28;19962;-74
2023/10/31 02:57:23;;;;;;;;;;;15.20;99.90;;;;;;5036770;28;19913;-72
2023/10/31 02:59:49;;;;;;;;;;;15.20;99.90;;;;;;5039843;28;19938;-72
2023/10/31 03:02:14;;;;;;;;;;;15.20;99.90;;;;;;5040662;28;19960;-73
2023/10/31 03:04:40;;;;;;;;;;;15.20;99.90;;;;;;5038067;28;19932;-74
2023/10/31 03:07:06;;;;;;;;;;;15.20;99.90;;;;;;5041474;28;19917;-73
2023/10/31 03:09:32;;;;;;;;;;;15.40;99.90;;;;;;5036900;28;19924;-74
2023/10/31 03:11:58;;;;;;;;;;;15.50;99.90;;;;;;5040326;28;19912;-74
2023/10/31 03:14:23;;;;;;;;;;;15.50;99.90;;;;;;5041768;28;19913;-73
2023/10/31 03:16:49;;;;;;;;;;;15.50;99.90;;;;;;5040592;28;20288;-74
2023/10/31 03:19:14;;;;;;;;;;;15.60;99.90;;;;;;5037836;28;19909;-73
2023/10/31 03:21:40;;;;;;;;;;;15.70;99.90;;;;;;5042211;28;20441;-73
2023/10/31 03:24:05;;;;;;;;;;;15.70;99.90;;;;;;5038854;28;20015;-73
2023/10/31 03:26:31;;;;;;;;;;;15.70;99.90;;;;;;5040494;28;20398;-73
2023/10/31 03:28:57;;;;;;;;;;;15.70;99.90;;;;;;5036844;28;20046;-74
2023/10/31 03:31:23;;;;;;;;;;;15.60;99.90;;;;;;5039858;28;19916;-73
2023/10/31 03:33:48;;;;;;;;;;;15.60;99.90;;;;;;5041163;28;20408;-74
2023/10/31 03:36:14;;;;;;;;;;;15.50;99.90;;;;;;5041126;28;19919;-74
2023/10/31 03:38:39;;;;;;;;;;;15.40;99.90;;;;;;5040165;28;19913;-74
2023/10/31 03:41:05;;;;;;;;;;;15.40;99.90;;;;;;5037104;28;20501;-74
2023/10/31 03:43:31;;;;;;;;;;;15.30;99.90;;;;;;5040195;28;19909;-73
2023/10/31 03:45:56;;;;;;;;;;;15.20;99.90;;;;;;5039559;28;20368;-74
2023/10/31 03:48:22;;;;;;;;;;;15.20;99.90;;;;;;5038580;28;19917;-73
2023/10/31 03:50:47;;;;;;;;;;;15.10;99.90;;;;;;5039960;28;20435;-73
2023/10/31 03:53:13;;;;;;;;;;;15.10;99.90;;;;;;5039068;28;20360;-73
2023/10/31 03:55:38;;;;;;;;;;;15.00;99.90;;;;;;5039844;28;19920;-72
2023/10/31 03:58:04;;;;;;;;;;;15.00;99.90;;;;;;5034254;28;19952;-73
2023/10/31 04:00:29;;;;;;;;;;;14.90;99.90;;;;;;5039190;28;20364;-73
2023/10/31 04:02:55;;;;;;;;;;;14.90;99.90;;;;;;5039470;28;19924;-73
2023/10/31 04:05:22;;;;;;;;;;;14.90;99.90;;;;;;5043337;28;19920;-73
2023/10/31 04:07:48;;;;;;;;;;;14.90;99.90;;;;;;5039104;28;19909;-73
2023/10/31 04:10:14;;;;;;;;;;;14.90;99.90;;;;;;5037976;28;19923;-73
2023/10/31 04:12:40;;;;;;;;;;;14.80;99.90;;;;;;5037619;28;19908;-74
2023/10/31 04:15:07;;;;;;;;;;;14.80;99.90;;;;;;5041099;28;19924;-73
2023/10/31 04:17:32;;;;;;;;;;;14.80;99.90;;;;;;5039796;28;19916;-73
2023/10/31 04:19:58;;;;;;;;;;;14.80;99.90;;;;;;5036837;28;19916;-74
2023/10/31 04:22:23;;;;;;;;;;;14.80;99.90;;;;;;5044822;28;19940;-73
2023/10/31 04:24:49;;;;;;;;;;;14.80;99.90;;;;;;5035703;28;19982;-73
2023/10/31 04:27:14;;;;;;;;;;;14.70;99.90;;;;;;5039785;28;19924;-73
2023/10/31 04:29:40;;;;;;;;;;;14.70;99.90;;;;;;5036603;28;20391;-73
2023/10/31 04:32:06;;;;;;;;;;;14.70;99.90;;;;;;5039989;28;19917;-73
2023/10/31 04:34:32;;;;;;;;;;;14.70;99.90;;;;;;5036854;28;19935;-73
2023/10/31 04:36:58;;;;;;;;;;;14.70;99.90;;;;;;5037402;28;19913;-74
2023/10/31 04:39:27;;;;;;;;;;;14.70;99.90;;;;;;5041793;28;19916;-73
2023/10/31 04:41:52;;;;;;;;;;;14.70;99.90;;;;;;5041138;28;20004;-73
2023/10/31 04:44:18;;;;;;;;;;;14.70;99.90;;;;;;5039734;28;20383;-73
2023/10/31 04:46:43;;;;;;;;;;;14.70;99.90;;;;;;5039718;28;20390;-73
2023/10/31 04:49:09;;;;;;;;;;;14.70;99.90;;;;;;5038392;28;19960;-73
2023/10/31 04:51:35;;;;;;;;;;;14.70;99.90;;;;;;5039116;28;20409;-73
2023/10/31 04:54:01;;;;;;;;;;;14.70;99.90;;;;;;5040747;28;19996;-72
2023/10/31 04:56:26;;;;;;;;;;;14.70;99.90;;;;;;5036804;28;20383;-73
2023/10/31 04:58:52;;;;;;;;;;;14.70;99.90;;;;;;5038664;28;19924;-74
2023/10/31 05:01:17;;;;;;;;;;;14.70;99.90;;;;;;5069043;28;19998;-73
2023/10/31 05:03:43;;;;;;;;;;;14.70;99.90;;;;;;5039600;28;20380;-73
2023/10/31 05:06:08;;;;;;;;;;;14.80;99.90;;;;;;5038319;28;20323;-72
2023/10/31 05:08:34;;;;;;;;;;;14.80;99.90;;;;;;5044377;28;20378;-72
2023/10/31 05:11:00;;;;;;;;;;;14.70;99.90;;;;;;5038677;28;19908;-73
2023/10/31 05:13:25;;;;;;;;;;;14.70;99.90;;;;;;5043084;28;19920;-73
2023/10/31 05:15:53;;;;;;;;;;;14.70;99.90;;;;;;5041874;28;19936;-73
2023/10/31 05:18:18;;;;;;;;;;;14.70;99.90;;;;;;5039920;28;19921;-73
2023/10/31 05:20:44;;;;;;;;;;;14.60;99.90;;;;;;5042532;28;19916;-72
2023/10/31 05:23:09;;;;;;;;;;;14.60;99.90;;;;;;5041437;28;19909;-72
2023/10/31 05:25:36;;;;;;;;;;;14.60;99.90;;;;;;5040588;28;19916;-68
2023/10/31 05:28:02;;;;;;;;;;;14.50;99.90;;;;;;5036064;28;19913;-69
2023/10/31 05:30:27;;;;;;;;;;;14.50;99.90;;;;;;5056219;28;19913;-70
2023/10/31 05:32:53;;;;;;;;;;;14.50;99.90;;;;;;5039900;28;20013;-70
2023/10/31 05:35:19;;;;;;;;;;;14.40;99.90;;;;;;5036475;28;19913;-69
2023/10/31 05:37:46;;;;;;;;;;;14.40;99.90;;;;;;5041285;28;19966;-70
2023/10/31 05:40:11;;;;;;;;;;;14.40;99.90;;;;;;5036257;28;19909;-69
2023/10/31 05:42:37;;;;;;;;;;;14.30;99.90;;;;;;5044039;28;19920;-69
2023/10/31 05:45:03;;;;;;;;;;;14.30;99.90;;;;;;5036066;28;19912;-69
2023/10/31 05:47:28;;;;;;;;;;;14.30;99.90;;;;;;5039474;28;20614;-69
2023/10/31 05:49:54;;;;;;;;;;;14.30;99.90;;;;;;5039316;28;19909;-69
2023/10/31 05:52:19;;;;;;;;;;;14.30;99.90;;;;;;5042308;28;19913;-69
2023/10/31 05:54:45;;;;;;;;;;;14.20;99.90;;;;;;5040427;28;19917;-70
2023/10/31 05:57:11;;;;;;;;;;;14.20;99.90;;;;;;5040414;28;20023;-71
2023/10/31 05:59:37;;;;;;;;;;;14.20;99.90;;;;;;5040403;28;19978;-68
2023/10/31 06:02:02;;;;;;;;;;;14.20;99.90;;;;;;5033945;28;20390;-69
2023/10/31 06:04:28;;;;;;;;;;;14.10;99.90;;;;;;5045000;28;20003;-70
2023/10/31 06:06:53;;;;;;;;;;;14.10;99.90;;;;;;5041075;28;20000;-71
2023/10/31 06:09:19;;;;;;;;;;;14.10;99.90;;;;;;5040526;28;19931;-71
2023/10/31 06:11:44;;;;;;;;;;;14.10;99.90;;;;;;5040274;28;20027;-71
2023/10/31 06:14:13;;;;;;;;;;;14.00;99.90;;;;;;5036286;28;19932;-72
2023/10/31 06:16:42;;;;;;;;;;;14.00;99.90;;;;;;5040711;28;19956;-72
2023/10/31 06:19:08;;;;;;;;;;;14.00;99.90;;;;;;5043260;28;19917;-72
2023/10/31 06:21:33;;;;;;;;;;;14.00;99.90;;;;;;5040412;28;19913;-71
2023/10/31 06:23:59;;;;;;;;;;;14.10;99.90;;;;;;5044563;28;20007;-72
2023/10/31 06:26:24;;;;;;;;;;;14.00;99.90;;;;;;5040349;28;20364;-71
2023/10/31 06:28:50;;;;;;;;;;;14.00;99.90;;;;;;5036000;28;20363;-71
2023/10/31 06:31:15;;;;;;;;;;;14.00;99.90;;;;;;5040642;28;20395;-72
2023/10/31 06:33:41;;;;;;;;;;;14.00;99.90;;;;;;5038577;28;19917;-71
2023/10/31 06:36:07;;;;;;;;;;;13.90;99.90;;;;;;5074051;28;20244;-69
2023/10/31 06:38:33;;;;;;;;;;;13.90;99.90;;;;;;5038118;28;19923;-71
2023/10/31 06:40:59;;;;;;;;;;;13.90;99.90;;;;;;5041569;28;20003;-70
2023/10/31 06:43:25;;;;;;;;;;;13.80;99.90;;;;;;5041363;28;20347;-71
2023/10/31 06:45:51;;;;;;;;;;;13.80;99.90;;;;;;5041620;28;19913;-70
2023/10/31 06:48:16;;;;;;;;;;;13.80;99.90;;;;;;5039336;28;19941;-70
2023/10/31 06:50:42;;;;;;;;;;;13.80;99.90;;;;;;5034667;28;19908;-70
2023/10/31 06:53:08;;;;;;;;;;;13.80;99.90;;;;;;5040887;28;19915;-71
2023/10/31 06:55:33;;;;;;;;;;;13.80;99.90;;;;;;5041044;28;20001;-71
2023/10/31 06:57:59;;;;;;;;;;;13.80;99.90;;;;;;5041034;28;19917;-70
2023/10/31 07:00:25;;;;;;;;;;;13.80;99.90;;;;;;5039938;28;19920;-71
2023/10/31 07:02:50;;;;;;;;;;;13.70;99.90;;;;;;5041746;28;19955;-70
2023/10/31 07:05:17;;;;;;;;;;;13.80;99.90;;;;;;5037928;28;19919;-71
2023/10/31 07:07:42;;;;;;;;;;;13.80;99.90;;;;;;5039004;28;19916;-71
2023/10/31 07:10:08;;;;;;;;;;;13.80;99.90;;;;;;5039474;28;19920;-71
2023/10/31 07:12:36;;;;;;;;;;;13.70;99.90;;;;;;5035064;28;19912;-71
2023/10/31 07:15:02;;;;;;;;;;;13.70;99.90;;;;;;5039518;28;19913;-71
2023/10/31 07:17:29;;;;;;;;;;;13.70;99.90;;;;;;5040069;28;20379;-70
2023/10/31 07:19:54;;;;;;;;;;;13.80;99.90;;;;;;5043423;28;19913;-71
2023/10/31 07:22:20;;;;;;;;;;;13.80;99.90;;;;;;5039165;28;19913;-69
2023/10/31 07:24:45;;;;;;;;;;;13.70;99.90;;;;;;5038675;28;19923;-70
2023/10/31 07:27:11;;;;;;;;;;;13.70;99.90;;;;;;5040823;28;19920;-69
2023/10/31 07:29:41;;;;;;;;;;;13.70;99.90;;;;;;5037018;28;19916;-69
2023/10/31 07:32:07;;;;;;;;;;;13.70;99.90;;;;;;5034063;28;19972;-69
2023/10/31 07:34:33;;;;;;;;;;;13.70;99.90;;;;;;5038475;28;20387;-69
2023/10/31 07:36:58;;;;;;;;;;;13.70;99.90;;;;;;5037385;28;19959;-69
2023/10/31 07:39:24;;;;;;;;;;;13.70;99.90;;;;;;5036802;28;20548;-69
2023/10/31 07:41:49;;;;;;;;;;;13.70;99.90;;;;;;5036312;28;20360;-68
2023/10/31 07:44:15;;;;;;;;;;;13.70;99.90;;;;;;5037233;28;20361;-69
2023/10/31 07:46:40;;;;;;;;;;;13.70;99.90;;;;;;5036910;28;20004;-68
2023/10/31 07:49:06;;;;;;;;;;;13.70;99.90;;;;;;5036826;28;19917;-69
2023/10/31 07:51:31;;;;;;;;;;;13.70;99.90;;;;;;5040090;28;19999;-69
2023/10/31 07:53:58;;;;;;;;;;;13.70;99.90;;;;;;5069230;28;19909;-69
2023/10/31 07:56:25;;;;;;;;;;;13.70;99.90;;;;;;5039807;28;19924;-69
2023/10/31 07:58:51;;;;;;;;;;;13.70;99.90;;;;;;5031966;28;19916;-68
2023/10/31 08:01:17;;;;;;;;;;;13.80;99.90;;;;;;5036620;28;20287;-68
2023/10/31 08:03:42;;;;;;;;;;;13.80;99.90;;;;;;5037203;28;19919;-68
2023/10/31 08:06:08;;;;;;;;;;;13.80;99.90;;;;;;5037747;28;19924;-68
2023/10/31 08:08:36;;;;;;;;;;;13.80;99.90;;;;;;5037400;28;20670;-68
2023/10/31 08:11:03;;;;;;;;;;;13.80;99.90;;;;;;5037519;28;19913;-68
2023/10/31 08:13:29;;;;;;;;;;;13.80;99.90;;;;;;5035662;28;20006;-69
2023/10/31 08:15:55;;;;;;;;;;;13.80;99.90;;;;;;5037135;28;20371;-68
2023/10/31 08:18:22;;;;;;;;;;;13.80;99.90;;;;;;5040848;28;19916;-68
2023/10/31 08:20:49;;;;;;;;;;;13.90;99.90;;;;;;5033260;28;20506;-69
2023/10/31 08:23:15;;;;;;;;;;;13.90;99.90;;;;;;5039265;28;20740;-69
2023/10/31 08:25:41;;;;;;;;;;;13.90;99.90;;;;;;5033450;28;19936;-68
2023/10/31 08:28:06;;;;;;;;;;;14.00;99.90;;;;;;5038614;28;19963;-69
2023/10/31 08:30:32;;;;;;;;;;;14.00;99.90;;;;;;5038147;28;19909;-68
2023/10/31 08:32:58;;;;;;;;;;;14.00;99.90;;;;;;5038448;28;19912;-68
2023/10/31 08:35:23;;;;;;;;;;;14.10;99.90;;;;;;5036742;28;19936;-69
2023/10/31 08:37:49;;;;;;;;;;;14.10;99.90;;;;;;5036606;28;19916;-68
2023/10/31 08:40:15;;;;;;;;;;;14.10;99.90;;;;;;5033882;28;19917;-68
2023/10/31 08:42:41;;;;;;;;;;;14.00;99.90;;;;;;5039816;28;19913;-68
2023/10/31 08:45:07;;;;;;;;;;;14.10;99.90;;;;;;5036768;28;20384;-69
2023/10/31 08:47:33;;;;;;;;;;;14.10;99.90;;;;;;5032310;28;19945;-68
2023/10/31 08:49:58;;;;;;;;;;;14.00;99.90;;;;;;5038518;28;19956;-68
2023/10/31 08:52:24;;;;;;;;;;;14.00;99.90;;;;;;5039815;28;19966;-67
2023/10/31 08:54:50;;;;;;;;;;;14.00;99.90;;;;;;5037622;28;19952;-68
2023/10/31 08:57:16;;;;;;;;;;;14.00;99.90;;;;;;5034165;28;20437;-68
2023/10/31 08:59:42;;;;;;;;;;;14.00;99.90;;;;;;5036551;28;19916;-68
2023/10/31 09:02:08;;;;;;;;;;;14.00;99.90;;;;;;5033846;28;19909;-68
2023/10/31 09:04:34;;;;;;;;;;;14.00;99.90;;;;;;5037526;28;20391;-68
2023/10/31 09:07:00;;;;;;;;;;;14.00;99.90;;;;;;5038236;28;19987;-68
2023/10/31 09:09:26;;;;;;;;;;;14.00;99.90;;;;;;5036715;28;20325;-68
2023/10/31 09:11:51;;;;;;;;;;;14.00;99.90;;;;;;5033225;28;19921;-68
2023/10/31 09:14:17;;;;;;;;;;;13.90;99.90;;;;;;5038081;28;19993;-68
2023/10/31 09:16:42;;;;;;;;;;;14.00;99.90;;;;;;5033933;28;20257;-68
2023/10/31 09:19:08;;;;;;;;;;;14.00;99.90;;;;;;5037945;28;20470;-68
2023/10/31 09:21:33;;;;;;;;;;;13.90;99.90;;;;;;5035920;28;19952;-68
2023/10/31 09:23:59;;;;;;;;;;;13.90;99.90;;;;;;5038189;28;20423;-68
2023/10/31 09:26:24;;;;;;;;;;;13.90;99.90;;;;;;5037868;28;20319;-68
2023/10/31 09:28:50;;;;;;;;;;;13.90;99.90;;;;;;5032198;28;20386;-67
2023/10/31 09:31:19;;;;;;;;;;;13.80;99.90;;;;;;5035727;28;19962;-68
2023/10/31 09:33:47;;;;;;;;;;;13.80;99.90;;;;;;5035142;28;19913;-68
2023/10/31 09:36:14;;;;;;;;;;;13.70;99.90;;;;;;5030450;28;20016;-68
2023/10/31 09:38:40;;;;;;;;;;;13.70;99.90;;;;;;5036371;28;19919;-68
2023/10/31 09:41:05;;;;;;;;;;;13.70;99.90;;;;;;5039153;28;21501;-68
2023/10/31 09:43:31;;;;;;;;;;;13.70;99.90;;;;;;5032550;28;20288;-68
2023/10/31 09:45:57;;;;;;;;;;;13.60;99.90;;;;;;5036949;28;19912;-68
2023/10/31 09:48:23;;;;;;;;;;;13.60;99.90;;;;;;5036587;28;19917;-70
2023/10/31 09:50:49;;;;;;;;;;;13.50;99.90;;;;;;5031549;28;20131;-69
2023/10/31 09:53:16;;;;;;;;;;;13.50;99.90;;;;;;5039121;28;19992;-68
2023/10/31 09:55:42;;;;;;;;;;;13.40;99.90;;;;;;5037860;28;20521;-69
2023/10/31 09:58:09;;;;;;;;;;;13.40;99.90;;;;;;5039715;28;19920;-69
2023/10/31 10:00:36;;;;;;;;;;;13.30;99.90;;;;;;5040190;28;20032;-70
2023/10/31 10:03:03;;;;;;;;;;;13.30;99.90;;;;;;5040201;28;19912;-71
2023/10/31 10:05:31;;;;;;;;;;;13.20;99.90;;;;;;5039677;28;19927;-70
2023/10/31 10:07:56;;;;;;;;;;;13.10;99.90;;;;;;5039109;28;20394;-70
2023/10/31 10:10:22;;;;;;;;;;;13.00;99.90;;;;;;5039401;28;20067;-68
2023/10/31 10:12:47;;;;;;;;;;;13.00;99.90;;;;;;5044089;28;19909;-70
2023/10/31 10:15:13;;;;;;;;;;;12.90;99.90;;;;;;5036246;28;19935;-69
2023/10/31 10:17:41;;;;;;;;;;;12.80;99.90;;;;;;5039597;28;19920;-69
2023/10/31 10:20:08;;;;;;;;;;;12.70;99.90;;;;;;5035277;28;20005;-69
2023/10/31 10:22:42;;;;;;;;;;;12.70;99.90;;;;;;5041672;28;20442;-70
2023/10/31 10:25:21;;;;;;;;;;;12.50;99.90;;;;;;5039807;28;19913;-69
2023/10/31 10:27:47;;;;;;;;;;;12.40;99.90;;;;;;5034783;28;20004;-71
2023/10/31 10:30:13;;;;;;;;;;;12.30;99.90;;;;;;5040242;28;19913;-70
2023/10/31 10:32:39;;;;;;;;;;;12.30;99.90;;;;;;5040273;28;19909;-67
2023/10/31 10:35:05;;;;;;;;;;;12.20;99.90;;;;;;5036552;28;20332;-70
2023/10/31 10:37:31;;;;;;;;;;;12.10;99.90;;;;;;5043090;28;20364;-68
2023/10/31 10:40:00;;;;;;;;;;;12.00;99.90;;;;;;5040218;28;19944;-70
2023/10/31 10:42:35;;;;;;;;;;;11.90;99.90;;;;;;5043267;28;19916;-69
2023/10/31 10:45:03;;;;;;;;;;;11.80;99.90;;;;;;5041827;28;19909;-70
2023/10/31 10:47:30;;;;;;;;;;;11.80;99.90;;;;;;5039991;28;19959;-70
2023/10/31 10:49:58;;;;;;;;;;;11.70;99.90;;;;;;5039054;28;19923;-70
2023/10/31 10:52:44;;;;;;;;;;;11.70;99.90;;;;;;5038360;28;20391;-69
2023/10/31 10:55:16;;;;;;;;;;;11.60;99.90;;;;;;5035537;28;19940;-69
2023/10/31 10:57:54;;;;;;;;;;;11.60;99.90;;;;;;5039245;28;19920;-69
2023/10/31 11:00:24;;;;;;;;;;;11.60;99.90;;;;;;5038287;28;20470;-68
2023/10/31 11:02:52;;;;;;;;;;;11.50;99.90;;;;;;5040279;28;19916;-69
2023/10/31 11:05:17;;;;;;;;;;;11.50;99.90;;;;;;5037520;28;19916;-69
2023/10/31 11:07:44;;;;;;;;;;;11.50;99.90;;;;;;5039007;28;19917;-70
2023/10/31 11:10:09;;;;;;;;;;;11.50;99.90;;;;;;5035947;28;20410;-70
2023/10/31 11:12:36;;;;;;;;;;;11.40;99.90;;;;;;5039447;28;20139;-69
2023/10/31 11:15:03;;;;;;;;;;;11.40;99.90;;;;;;5039457;28;20390;-70
2023/10/31 11:17:30;;;;;;;;;;;11.30;99.90;;;;;;5037336;28;19913;-69
2023/10/31 11:19:57;;;;;;;;;;;11.30;99.90;;;;;;5041516;28;20347;-69
2023/10/31 11:22:23;;;;;;;;;;;11.30;99.90;;;;;;5035199;28;19923;-68
2023/10/31 11:24:49;;;;;;;;;;;11.30;99.90;;;;;;5038707;28;20507;-69
2023/10/31 11:27:16;;;;;;;;;;;11.30;99.90;;;;;;5035224;28;19913;-69
2023/10/31 11:29:42;;;;;;;;;;;11.30;99.90;;;;;;5035822;28;19912;-69
2023/10/31 11:32:08;;;;;;;;;;;11.30;99.90;;;;;;5034239;28;19915;-69
2023/10/31 11:34:36;;;;;;;;;;;11.30;99.90;;;;;;5037615;28;20327;-69
2023/10/31 11:37:20;;;;;;;;;;;11.30;99.90;;;;;;5038187;28;19970;-70
2023/10/31 11:40:04;;;;;;;;;;;11.30;99.90;;;;;;5036296;28;19915;-69
2023/10/31 11:42:31;;;;;;;;;;;11.30;99.90;;;;;;5035351;28;19913;-70
2023/10/31 11:44:58;;;;;;;;;;;11.30;99.90;;;;;;5036466;28;19913;-68
2023/10/31 11:47:23;;;;;;;;;;;11.30;99.90;;;;;;5037088;28;20301;-70
2023/10/31 11:49:49;;;;;;;;;;;11.40;99.90;;;;;;5038686;28;19931;-69
2023/10/31 11:52:17;;;;;;;;;;;11.40;99.90;;;;;;5039631;28;19927;-69
2023/10/31 11:54:43;;;;;;;;;;;11.40;99.90;;;;;;5034703;28;19935;-70
2023/10/31 11:57:09;;;;;;;;;;;11.40;99.90;;;;;;5069836;28;19916;-70
2023/10/31 11:59:38;;;;;;;;;;;11.40;99.90;;;;;;5033999;28;19960;-70
2023/10/31 12:02:16;;;;;;;;;;;11.50;99.90;;;;;;5037202;28;20410;-70
2023/10/31 12:04:42;;;;;;;;;;;11.60;99.90;;;;;;5032753;28;19923;-70
2023/10/31 12:07:08;;;;;;;;;;;11.70;99.90;;;;;;5036611;28;19913;-69
2023/10/31 12:09:44;;;;;;;;;;;11.70;99.90;;;;;;5038001;28;19920;-70
2023/10/31 12:12:10;;;;;;;;;;;11.60;99.90;;;;;;5038378;28;19913;-70
2023/10/31 12:14:36;;;;;;;;;;;11.50;99.90;;;;;;5034579;28;19920;-70
2023/10/31 12:17:04;;;;;;;;;;;11.50;99.90;;;;;;5037236;28;20375;-70
2023/10/31 12:19:30;;;;;;;;;;;11.50;99.90;;;;;;5036352;28;19909;-69
2023/10/31 12:21:56;;;;;;;;;;;11.50;99.90;;;;;;5040713;28;20320;-69
2023/10/31 12:24:22;;;;;;;;;;;11.60;99.90;;;;;;5036957;28;20535;-70
2023/10/31 12:26:48;;;;;;;;;;;11.60;99.90;;;;;;5036111;28;19995;-69
2023/10/31 12:29:14;;;;;;;;;;;11.60;99.90;;;;;;5033582;28;20360;-69
2023/10/31 12:31:53;;;;;;;;;;;11.60;99.90;;;;;;5041023;28;19999;-68
2023/10/31 12:34:23;;;;;;;;;;;11.60;99.90;;;;;;5032061;28;19923;-69
2023/10/31 12:36:49;;;;;;;;;;;11.50;99.90;;;;;;5036089;28;19913;-69
2023/10/31 12:39:16;;;;;;;;;;;11.50;99.90;;;;;;5038657;28;19920;-69
2023/10/31 12:41:43;;;;;;;;;;;11.50;99.90;;;;;;5037846;28;19913;-69
2023/10/31 12:44:11;;;;;;;;;;;11.50;99.90;;;;;;5032987;28;20342;-69
2023/10/31 12:46:41;;;;;;;;;;;11.50;99.90;;;;;;5035925;28;19920;-69
2023/10/31 12:49:16;;;;;;;;;;;11.50;99.90;;;;;;5034636;28;20456;-68
2023/10/31 12:52:00;;;;;;;;;;;11.50;99.90;;;;;;5037006;28;19927;-68
2023/10/31 12:54:30;;;;;;;;;;;11.40;99.90;;;;;;5034697;28;19917;-69
2023/10/31 12:56:59;;;;;;;;;;;11.50;99.90;;;;;;5033173;28;19959;-69
2023/10/31 12:59:24;;;;;;;;;;;11.50;99.90;;;;;;5037285;28;20003;-69
2023/10/31 13:01:50;;;;;;;;;;;11.50;99.90;;;;;;5036135;28;19995;-69
2023/10/31 13:04:24;;;;;;;;;;;11.50;99.90;;;;;;5032061;28;19912;-69
2023/10/31 13:06:57;;;;;;;;;;;11.50;99.90;;;;;;5035387;28;19908;-69
2023/10/31 13:09:22;;;;;;;;;;;11.50;99.90;;;;;;5032008;28;19929;-69
2023/10/31 13:11:48;;;;;;;;;;;11.60;99.90;;;;;;5035834;28;19922;-67
2023/10/31 13:14:14;;;;;;;;;;;11.70;99.90;;;;;;5031910;28;19991;-68
2023/10/31 13:16:39;;;;;;;;;;;11.70;99.90;;;;;;5036791;28;19909;-69
2023/10/31 13:19:05;;;;;;;;;;;11.60;99.90;;;;;;5031476;28;19927;-68
2023/10/31 13:21:30;;;;;;;;;;;11.60;99.90;;;;;;5041516;28;20364;-69
2023/10/31 13:23:56;;;;;;;;;;;11.50;99.90;;;;;;5034625;28;19913;-69
2023/10/31 13:26:21;;;;;;;;;;;11.50;99.90;;;;;;5032550;28;20081;-70
2023/10/31 13:28:47;;;;;;;;;;;11.50;99.90;;;;;;5038128;28;19963;-67
2023/10/31 13:31:14;;;;;;;;;;;11.40;99.90;;;;;;5040761;28;20681;-66
2023/10/31 13:33:39;;;;;;;;;;;11.40;99.90;;;;;;5040099;28;20007;-67
2023/10/31 13:36:05;;;;;;;;;;;11.30;99.90;;;;;;5035980;28;20713;-66
2023/10/31 13:38:30;;;;;;;;;;;11.20;99.90;;;;;;5043966;28;20431;-67
2023/10/31 13:40:56;;;;;;;;;;;11.30;99.90;;;;;;5039560;28;20012;-67
2023/10/31 13:43:22;;;;;;;;;;;11.20;99.90;;;;;;5039052;28;19916;-67
2023/10/31 13:45:47;;;;;;;;;;;11.20;99.90;;;;;;5034944;28;19913;-65
2023/10/31 13:48:14;;;;;;;;;;;11.30;99.90;;;;;;5039659;28;19917;-65
2023/10/31 13:50:41;;;;;;;;;;;11.30;99.90;;;;;;5035616;28;20465;-66
2023/10/31 13:53:07;;;;;;;;;;;11.20;99.90;;;;;;5040807;28;19977;-66
2023/10/31 13:55:33;;;;;;;;;;;11.20;99.90;;;;;;5037610;28;19920;-66
2023/10/31 13:57:58;;;;;;;;;;;11.10;99.90;;;;;;5038713;28;19916;-67
2023/10/31 14:00:24;;;;;;;;;;;11.00;99.90;;;;;;5035303;28;19915;-66
2023/10/31 14:02:49;;;;;;;;;;;11.00;99.90;;;;;;5039431;28;19913;-65
2023/10/31 14:05:16;;;;;;;;;;;11.00;99.90;;;;;;5035492;28;19960;-67
2023/10/31 14:07:41;;;;;;;;;;;11.00;99.90;;;;;;5036282;28;19917;-65
2023/10/31 14:10:07;;;;;;;;;;;11.00;99.90;;;;;;5038748;28;20383;-66